GMMN/CMN METAR and TAF weather

Enter ICAO airport designator
Station Type Date Time Source
GMMN METAR 2020/02/20 23:00 UTC NOAA

GMMN 202300Z 13010KT 8000 FEW016 SCT080 15/14 Q1021 NOSIG


Station Type Date Time Source
GMMN Decoded METAR 2020/02/20 23:00 UTC NOAA

Nouasseur, Morocco (GMMN) 33-22N 007-35W 206M
Feb 20, 2020 - 06:00 PM EST / 2020.02.20 2300 UTC
Wind: from the SE (130 degrees) at 12 MPH (10 KT):0
Visibility: 4 mile(s):0
Sky conditions: partly cloudy
Temperature: 59 F (15 C)
Dew Point: 57 F (14 C)
Relative Humidity: 93%
Pressure (altimeter): 30.15 in. Hg (1021 hPa)
ob: GMMN 202300Z 13010KT 8000 FEW016 SCT080 15/14 Q1021 NOSIG
cycle: 23

Station Type Date Time Source
GMMN TAF 2020/02/20 18:18 UTC NOAA

TAF GMMN 201700Z 2018/2124 32008KT 9999 FEW016 PROB30
TEMPO 2021/2024 RA BKN020 PROB30
TEMPO 2102/2109 2000 BR BKN006
BECMG 2110/2112 32008KT CAVOK

Example: see airport list